createdAt,value
2023-03-13T00:29:10.626Z,0.54
2023-03-13T00:30:10.689Z,0.54
2023-03-13T00:31:10.884Z,0.54
2023-03-13T00:32:10.885Z,0.55
2023-03-13T00:33:10.923Z,0.54
2023-03-13T00:34:11.015Z,0.55
2023-03-13T00:35:11.092Z,0.54
2023-03-13T00:36:11.172Z,0.54
2023-03-13T00:37:11.238Z,0.54
2023-03-13T00:38:11.314Z,0.54
2023-03-13T00:39:11.387Z,0.54
2023-03-13T00:40:11.475Z,0.54
2023-03-13T00:41:11.541Z,0.53
2023-03-13T00:42:12.302Z,0.54
2023-03-13T00:43:11.712Z,0.54
2023-03-13T00:44:11.797Z,0.55
2023-03-13T00:45:11.877Z,0.54
2023-03-13T00:46:12.014Z,0.54
2023-03-13T00:47:12.045Z,0.53
2023-03-13T00:48:12.103Z,0.55
2023-03-13T00:49:12.314Z,0.54
2023-03-13T00:50:12.266Z,0.54
2023-03-13T00:51:12.407Z,0.54
2023-03-13T00:52:12.461Z,0.54
2023-03-13T00:53:12.544Z,0.54
2023-03-13T00:54:12.603Z,0.55
2023-03-13T00:55:12.676Z,0.54
2023-03-13T00:56:12.814Z,0.55
2023-03-13T00:57:12.821Z,0.54
2023-03-13T00:58:12.903Z,0.54
2023-03-13T00:59:13.315Z,0.55
2023-03-13T01:00:13.069Z,0.55
2023-03-13T01:01:13.142Z,0.55
2023-03-13T01:02:13.366Z,0.55
2023-03-13T01:03:13.483Z,0.55
2023-03-13T01:04:13.390Z,0.55
2023-03-13T01:05:13.466Z,0.55
2023-03-13T01:06:13.607Z,0.54
2023-03-13T01:07:13.605Z,0.55
2023-03-13T01:08:13.690Z,0.55
2023-03-13T01:09:13.768Z,0.54
2023-03-13T01:10:14.330Z,0.55
2023-03-13T01:11:13.950Z,0.55
2023-03-13T01:12:14.046Z,0.54
2023-03-13T01:13:14.100Z,0.54
2023-03-13T01:14:14.195Z,0.55
2023-03-13T01:15:14.275Z,0.55
2023-03-13T01:16:14.429Z,0.54
2023-03-13T01:17:17.322Z,0.54
2023-03-13T01:18:14.447Z,0.54
2023-03-13T01:19:14.469Z,0.55
2023-03-13T01:20:14.510Z,0.55
2023-03-13T01:21:14.544Z,0.54
2023-03-13T01:22:14.552Z,0.54
2023-03-13T01:23:14.650Z,0.54
2023-03-13T01:24:14.648Z,0.54
2023-03-13T01:25:14.649Z,0.54
2023-03-13T01:26:14.661Z,0.53
2023-03-13T01:27:14.682Z,0.54
2023-03-13T01:28:14.709Z,0.53
2023-03-13T01:29:14.730Z,0.53
2023-03-13T01:30:14.755Z,0.54
2023-03-13T01:31:14.848Z,0.52
2023-03-13T01:32:15.334Z,0.52
2023-03-13T01:33:14.824Z,0.51
2023-03-13T01:34:14.877Z,0.51
2023-03-13T01:35:14.893Z,0.52
2023-03-13T01:36:14.909Z,0.52
2023-03-13T01:37:14.930Z,0.52
2023-03-13T03:11:20.636Z,0.51
2023-03-13T03:12:20.703Z,0.51
2023-03-13T03:13:20.770Z,0.51
2023-03-13T03:14:20.857Z,0.50
2023-03-13T03:15:20.940Z,0.51
2023-03-13T03:16:21.084Z,0.52
2023-03-13T03:17:21.081Z,0.52
2023-03-13T03:18:21.188Z,0.52
2023-03-13T03:19:21.322Z,0.52
2023-03-13T03:20:21.332Z,0.53
2023-03-13T03:21:21.413Z,0.52
2023-03-13T03:22:21.492Z,0.52
2023-03-13T03:23:21.594Z,0.53
2023-03-13T03:24:21.707Z,0.52
2023-03-13T03:25:21.764Z,0.51
2023-03-13T03:26:21.858Z,0.52
2023-03-13T03:27:21.970Z,0.53
2023-03-13T03:28:22.062Z,0.52
2023-03-13T03:29:22.162Z,0.53
2023-03-13T03:30:22.239Z,0.53
2023-03-13T03:31:22.388Z,0.53
2023-03-13T03:32:22.466Z,0.53
2023-03-13T03:33:22.612Z,0.53
2023-03-13T03:34:23.373Z,0.53
2023-03-13T03:35:22.753Z,0.53
2023-03-13T03:36:22.849Z,0.54
2023-03-13T03:37:22.956Z,0.54
2023-03-13T03:38:23.055Z,0.53
2023-03-13T03:39:23.142Z,0.54
2023-03-13T03:40:23.257Z,0.53
2023-03-13T03:41:23.419Z,0.52
2023-03-13T03:42:23.453Z,0.53
2023-03-13T03:43:23.578Z,0.53
2023-03-13T03:44:23.653Z,0.53
2023-03-13T03:45:23.777Z,0.53
2023-03-13T03:46:23.862Z,0.52
2023-03-13T03:47:24.146Z,0.53
2023-03-13T05:08:30.663Z,0.53
2023-03-13T05:09:30.736Z,0.53
2023-03-13T05:10:30.821Z,0.54
2023-03-13T05:11:30.899Z,0.53
2023-03-13T05:12:30.982Z,0.53
2023-03-13T05:13:31.068Z,0.52
2023-03-13T05:14:31.144Z,0.53
2023-03-13T05:15:31.222Z,0.52
2023-03-13T05:16:31.342Z,0.53
2023-03-13T05:17:31.383Z,0.53
2023-03-13T05:18:31.460Z,0.52
2023-03-13T05:19:31.550Z,0.54
2023-03-13T05:20:31.634Z,0.53
2023-03-13T05:21:31.804Z,0.53
2023-03-13T05:22:31.797Z,0.52
2023-03-13T05:23:31.873Z,0.53
2023-03-13T05:24:31.959Z,0.53
2023-03-13T05:25:32.039Z,0.52
2023-03-13T05:26:32.116Z,0.52
2023-03-13T05:27:32.241Z,0.53
2023-03-13T05:28:32.309Z,0.52
2023-03-13T05:29:32.365Z,0.52
2023-03-13T05:30:32.449Z,0.53
2023-03-13T05:31:32.574Z,0.53
2023-03-13T05:32:32.669Z,0.53
2023-03-13T05:33:32.708Z,0.53
2023-03-13T05:34:32.771Z,0.52
2023-03-13T05:35:32.865Z,0.53
2023-03-13T05:36:32.936Z,0.53
2023-03-13T05:37:33.011Z,0.53
2023-03-13T05:38:33.090Z,0.53
2023-03-13T05:39:33.166Z,0.53
2023-03-13T05:40:33.257Z,0.53
2023-03-13T05:41:33.326Z,0.52
2023-03-13T05:42:33.405Z,0.53
2023-03-13T05:43:33.501Z,0.53
2023-03-13T05:44:33.567Z,0.53
2023-03-13T05:45:33.646Z,0.53
2023-03-13T05:46:33.871Z,0.53
2023-03-13T05:47:33.810Z,0.53
2023-03-13T05:48:33.889Z,0.52
2023-03-13T05:49:33.965Z,0.53
2023-03-13T07:25:40.725Z,17.08
2023-03-13T07:26:46.524Z,16.71
2023-03-13T07:28:40.693Z,3.16
2023-03-13T07:29:40.702Z,2.53
2023-03-13T07:30:40.717Z,0.76
2023-03-13T07:31:40.817Z,0.44
2023-03-13T07:32:40.821Z,0.34
2023-03-13T07:33:40.794Z,0.34
2023-03-13T07:34:40.828Z,0.34
2023-03-13T07:35:41.258Z,0.34
2023-03-13T07:36:40.894Z,0.34
2023-03-13T07:37:40.908Z,0.34
2023-03-13T07:38:40.955Z,0.52
2023-03-13T07:39:40.984Z,0.70
2023-03-13T07:40:41.016Z,0.97
2023-03-13T07:41:41.116Z,1.42
2023-03-13T07:42:41.209Z,1.66
2023-03-13T07:43:41.289Z,1.86
2023-03-13T07:44:41.386Z,1.96
2023-03-13T07:45:41.469Z,2.11
2023-03-13T07:46:41.487Z,2.09
2023-03-13T07:47:41.532Z,1.99
2023-03-13T07:48:41.579Z,2.02
2023-03-13T07:49:41.685Z,2.09
2023-03-13T07:50:41.652Z,2.32
2023-03-13T07:51:44.181Z,2.42
2023-03-13T07:52:41.685Z,2.55
2023-03-13T07:53:41.673Z,2.74
2023-03-13T07:54:41.682Z,2.95
2023-03-13T07:55:41.688Z,3.17
2023-03-13T07:56:41.696Z,3.26
2023-03-13T07:57:41.712Z,3.58
2023-03-13T07:58:41.703Z,3.86
2023-03-13T07:59:41.765Z,4.09
2023-03-13T08:00:41.729Z,4.45
2023-03-13T08:01:41.731Z,4.77
2023-03-13T08:02:41.767Z,4.89
2023-03-13T08:03:41.821Z,5.23
2023-03-13T08:04:42.564Z,5.61
2023-03-13T08:05:41.772Z,5.92
2023-03-13T08:06:41.765Z,6.01
2023-03-13T08:07:41.762Z,6.57
2023-03-13T08:08:41.997Z,7.15
2023-03-13T08:09:43.446Z,7.44
2023-03-13T08:10:41.780Z,7.94
2023-03-13T08:11:42.500Z,8.27
2023-03-13T08:12:41.808Z,8.44
2023-03-13T08:13:41.824Z,8.98
2023-03-13T08:14:41.843Z,9.29
2023-03-13T08:15:41.865Z,9.78
2023-03-13T08:16:41.948Z,9.83
2023-03-13T08:17:41.906Z,9.95
2023-03-13T08:18:41.923Z,10.39
2023-03-13T08:19:41.918Z,10.97
2023-03-13T08:20:43.590Z,11.64
2023-03-13T08:21:42.217Z,12.23
2023-03-13T08:22:42.289Z,12.31
2023-03-13T08:23:42.370Z,12.44
2023-03-13T08:24:42.471Z,12.41
2023-03-13T08:25:42.558Z,12.38
2023-03-13T08:26:42.651Z,12.76
2023-03-13T08:27:42.693Z,12.67
2023-03-13T08:28:42.776Z,12.73
2023-03-13T08:29:42.877Z,12.54
2023-03-13T08:30:43.064Z,12.26
2023-03-13T08:31:43.044Z,12.05
2023-03-13T08:32:43.224Z,12.25
2023-03-13T08:33:43.268Z,12.03
2023-03-13T08:34:43.309Z,12.04
2023-03-13T08:35:44.029Z,12.21
2023-03-13T08:36:43.504Z,11.72
2023-03-13T08:37:43.437Z,11.76
2023-03-13T08:38:44.876Z,11.80
2023-03-13T08:39:43.489Z,11.68
2023-03-13T08:40:44.496Z,11.27
2023-03-13T08:41:43.541Z,11.36
2023-03-13T08:42:43.667Z,11.35
2023-03-13T08:43:43.566Z,11.10
2023-03-13T08:44:43.608Z,11.18
2023-03-13T08:45:43.637Z,11.08
2023-03-13T08:46:43.672Z,11.00
2023-03-13T08:47:43.638Z,10.83
2023-03-13T08:48:43.656Z,10.92
2023-03-13T08:49:43.681Z,10.68
2023-03-13T08:50:43.704Z,10.58
2023-03-13T08:51:43.738Z,10.42
2023-03-13T08:52:43.771Z,10.49
2023-03-13T08:53:43.767Z,10.43
2023-03-13T08:54:43.802Z,10.21
2023-03-13T08:55:44.503Z,10.19
2023-03-13T08:56:44.515Z,10.12
2023-03-13T08:57:43.936Z,10.08
2023-03-13T08:58:43.898Z,9.73
2023-03-13T08:59:44.511Z,9.89
2023-03-13T09:00:43.938Z,9.98
2023-03-13T09:01:43.984Z,9.77
2023-03-13T09:02:44.040Z,9.55
2023-03-13T09:03:45.047Z,9.76
2023-03-13T09:04:44.048Z,9.64
2023-03-13T09:05:55.649Z,9.66
2023-03-13T09:06:45.095Z,9.67
2023-03-13T09:07:44.096Z,9.65
2023-03-13T09:08:44.110Z,9.42
2023-03-13T09:09:44.134Z,9.44
2023-03-13T09:10:44.129Z,9.35
2023-03-13T09:11:44.141Z,9.15
2023-03-13T09:12:44.151Z,9.07
2023-03-13T09:13:44.159Z,9.05
2023-03-13T09:14:44.564Z,8.74
2023-03-13T09:15:44.177Z,9.11
2023-03-13T09:16:44.185Z,8.75
2023-03-13T09:17:44.186Z,4.27
2023-03-13T09:18:44.203Z,3.93
2023-03-13T09:19:57.859Z,3.66
2023-03-13T09:20:48.017Z,3.68
2023-03-13T09:21:44.235Z,3.70
2023-03-13T09:22:45.284Z,3.85
2023-03-13T09:23:44.265Z,3.71
2023-03-13T09:24:44.286Z,3.83
2023-03-13T09:25:44.303Z,3.58
2023-03-13T09:26:59.955Z,4.12
2023-03-13T09:27:45.325Z,4.12
2023-03-13T09:28:44.337Z,2.52
2023-03-13T09:29:44.352Z,1.60
2023-03-13T09:30:44.434Z,1.37
2023-03-13T09:31:44.383Z,1.40
2023-03-13T09:32:44.446Z,1.59
2023-03-13T09:33:44.424Z,1.88
2023-03-13T09:34:44.431Z,2.13
2023-03-13T09:35:44.473Z,2.15
2023-03-13T09:36:44.473Z,1.83
2023-03-13T09:37:44.482Z,1.43
2023-03-13T09:38:44.493Z,1.11
2023-03-13T09:39:44.509Z,1.37
2023-03-13T09:40:59.775Z,1.59
2023-03-13T09:41:45.548Z,1.60
2023-03-13T09:42:44.569Z,1.65
2023-03-13T09:43:44.608Z,1.75
2023-03-13T09:44:44.583Z,2.06
2023-03-13T09:45:44.580Z,2.63
2023-03-13T09:46:44.735Z,2.70
2023-03-13T09:47:44.607Z,2.83
2023-03-13T09:48:44.622Z,2.84
2023-03-13T09:49:44.687Z,2.89
2023-03-13T09:50:44.635Z,2.86
2023-03-13T09:52:44.652Z,2.89
2023-03-13T09:53:44.659Z,2.91
2023-03-13T09:54:44.662Z,2.94
2023-03-13T09:55:44.678Z,3.11
2023-03-13T09:56:44.684Z,2.97
2023-03-13T09:57:44.697Z,2.83
2023-03-13T09:58:44.714Z,2.82
2023-03-13T09:59:44.737Z,3.28
2023-03-13T10:00:44.751Z,3.78
2023-03-13T10:01:44.797Z,4.06
2023-03-13T10:02:44.792Z,4.35
2023-03-13T10:03:44.817Z,4.66
2023-03-13T10:04:44.841Z,4.84
2023-03-13T10:05:44.849Z,5.14
2023-03-13T10:06:44.859Z,5.55
2023-03-13T10:07:44.902Z,6.01
2023-03-13T10:08:44.880Z,6.87
2023-03-13T10:09:44.913Z,7.12
2023-03-13T10:10:44.934Z,7.34
2023-03-13T10:11:44.949Z,7.81
2023-03-13T10:12:44.965Z,8.09
2023-03-13T10:13:44.968Z,8.43
2023-03-13T10:14:44.964Z,8.67
2023-03-13T10:15:44.981Z,9.00
2023-03-13T10:16:44.987Z,10.09
2023-03-13T10:17:44.972Z,10.43
2023-03-13T10:18:44.956Z,11.66
2023-03-13T10:19:44.955Z,12.35
2023-03-13T10:20:44.956Z,12.74
2023-03-13T10:21:44.959Z,13.45
2023-03-13T10:22:44.943Z,14.26
2023-03-13T10:23:44.952Z,14.60
2023-03-13T10:24:44.935Z,15.30
2023-03-13T10:25:44.931Z,15.65
2023-03-13T10:26:44.927Z,15.87
2023-03-13T10:27:44.923Z,16.99
2023-03-13T10:29:44.928Z,17.76
2023-03-13T10:30:44.908Z,18.71
2023-03-13T10:31:44.959Z,19.90
2023-03-13T10:32:44.968Z,20.75
2023-03-13T10:33:45.887Z,20.82
2023-03-13T10:34:44.878Z,21.05
2023-03-13T10:35:44.943Z,21.82
2023-03-13T10:36:44.858Z,23.91
2023-03-13T10:37:44.850Z,27.32
2023-03-13T10:38:44.838Z,29.09
2023-03-13T10:39:44.832Z,30.10
2023-03-13T10:40:44.833Z,30.17
2023-03-13T10:41:44.830Z,30.83
2023-03-13T10:42:44.828Z,31.80
2023-03-13T10:43:44.814Z,33.73
2023-03-13T10:44:44.792Z,33.15
2023-03-13T10:45:44.784Z,34.64
2023-03-13T10:46:45.578Z,35.68
2023-03-13T10:47:44.757Z,36.69
2023-03-13T10:48:44.750Z,38.51
2023-03-13T10:49:44.740Z,39.32
2023-03-13T10:50:44.726Z,40.12
2023-03-13T10:51:44.733Z,41.53
2023-03-13T10:52:44.693Z,42.75
2023-03-13T10:53:44.686Z,43.88
2023-03-13T10:54:44.686Z,46.13
2023-03-13T10:55:44.652Z,47.28
2023-03-13T10:56:44.679Z,49.86
2023-03-13T10:57:44.641Z,49.95
2023-03-13T10:58:44.664Z,51.66
2023-03-13T10:59:44.644Z,54.43
2023-03-13T11:00:44.598Z,57.48
2023-03-13T11:01:44.656Z,58.78
2023-03-13T11:02:44.759Z,62.36
2023-03-13T11:03:44.622Z,64.78
2023-03-13T11:04:44.589Z,66.33
2023-03-13T11:05:44.589Z,70.72
2023-03-13T11:06:44.584Z,73.18
2023-03-13T11:07:44.668Z,73.79
2023-03-13T11:08:44.841Z,76.25
2023-03-13T11:09:44.746Z,81.05
2023-03-13T11:10:44.804Z,81.29
2023-03-13T11:11:44.864Z,80.93
2023-03-13T11:12:44.910Z,84.64
2023-03-13T11:13:44.973Z,86.14
2023-03-13T11:14:45.046Z,87.85
2023-03-13T11:15:45.082Z,89.57
2023-03-13T11:16:45.167Z,91.54
2023-03-13T11:17:45.294Z,76.30
2023-03-13T11:18:45.228Z,57.73
2023-03-13T11:19:45.214Z,51.39
2023-03-13T11:20:45.291Z,30.12
2023-03-13T11:21:45.290Z,11.12
2023-03-13T11:22:45.222Z,6.74
2023-03-13T11:23:45.236Z,5.57
2023-03-13T11:24:45.260Z,3.27
2023-03-13T11:25:45.305Z,2.97
2023-03-13T11:26:52.397Z,3.40
2023-03-13T11:28:45.316Z,3.20
2023-03-13T11:29:45.500Z,2.89
2023-03-13T11:30:45.313Z,1.70
2023-03-13T11:31:45.348Z,0.77
2023-03-13T11:32:45.338Z,0.55
2023-03-13T11:33:45.323Z,0.44
2023-03-13T11:34:45.338Z,0.46
2023-03-13T11:35:45.377Z,0.34
2023-03-13T11:36:45.343Z,0.34
2023-03-13T11:37:45.341Z,0.34
2023-03-13T11:38:45.387Z,0.41
2023-03-13T11:39:45.392Z,0.39
2023-03-13T13:06:51.106Z,28.50
2023-03-13T13:09:50.736Z,28.72
2023-03-13T13:10:50.729Z,28.72
2023-03-13T13:11:50.798Z,28.06
2023-03-13T13:12:50.865Z,27.94
2023-03-13T13:13:50.942Z,28.60
2023-03-13T13:14:50.996Z,27.92
2023-03-13T13:15:51.151Z,27.93
2023-03-13T13:16:51.183Z,27.46
2023-03-13T13:17:51.227Z,27.72
2023-03-13T13:18:51.238Z,27.78
2023-03-13T13:19:51.298Z,27.94
2023-03-13T13:20:51.618Z,27.47
2023-03-13T13:21:51.455Z,26.62
2023-03-13T13:22:52.844Z,27.08
2023-03-13T13:23:51.601Z,27.56
2023-03-13T13:24:51.681Z,26.74
2023-03-13T13:25:51.761Z,26.86
2023-03-13T13:26:51.848Z,27.35
2023-03-13T13:27:51.988Z,27.03
2023-03-13T13:28:51.935Z,26.81
2023-03-13T13:29:51.987Z,26.93
2023-03-13T13:30:54.554Z,27.26
2023-03-13T13:31:52.210Z,27.13
2023-03-13T13:32:52.257Z,26.13
2023-03-13T13:33:52.045Z,26.35
2023-03-13T13:34:52.048Z,25.81
2023-03-13T13:35:52.213Z,26.50
2023-03-13T13:36:52.053Z,26.17
2023-03-13T13:37:52.073Z,25.79
2023-03-13T13:38:52.069Z,25.96
2023-03-13T13:39:52.129Z,25.75
2023-03-13T13:40:52.082Z,26.06
2023-03-13T13:41:52.161Z,25.93
2023-03-13T13:42:52.120Z,25.34
2023-03-13T13:43:52.118Z,25.63
2023-03-13T13:44:52.132Z,25.97
2023-03-13T13:45:52.139Z,25.35
2023-03-13T13:46:52.228Z,25.52
2023-03-13T13:47:52.160Z,25.43
2023-03-13T13:48:52.151Z,25.43
2023-03-13T13:49:52.178Z,25.32
2023-03-13T13:50:52.178Z,25.21
2023-03-13T13:51:53.145Z,24.62
2023-03-13T13:52:52.183Z,25.11
2023-03-13T13:53:52.342Z,24.47
2023-03-13T13:54:52.197Z,24.89
2023-03-13T13:55:52.198Z,24.30
2023-03-13T13:56:52.292Z,24.39
2023-03-13T13:57:52.202Z,24.44
2023-03-13T13:58:52.213Z,24.07
2023-03-13T13:59:52.221Z,24.27
2023-03-13T14:00:52.222Z,24.27
2023-03-13T14:01:52.337Z,24.34
2023-03-13T14:02:52.255Z,23.79
2023-03-13T14:03:52.262Z,24.02
2023-03-13T14:04:52.342Z,24.33
2023-03-13T14:05:53.124Z,23.62
2023-03-13T14:06:52.291Z,24.22
2023-03-13T14:07:52.295Z,23.17
2023-03-13T14:08:52.334Z,24.18
2023-03-13T14:09:52.306Z,23.94
2023-03-13T14:10:52.384Z,23.90
2023-03-13T14:11:52.331Z,22.76
2023-03-13T14:12:52.338Z,23.32
2023-03-13T14:13:52.349Z,23.23
2023-03-13T14:14:52.348Z,23.22
2023-03-13T14:15:52.390Z,22.99
2023-03-13T14:16:52.364Z,23.30
2023-03-13T14:17:52.378Z,22.85
2023-03-13T14:18:52.375Z,22.96
2023-03-13T14:19:52.370Z,22.57
2023-03-13T14:20:52.374Z,22.27
2023-03-13T14:21:52.387Z,22.95
2023-03-13T14:22:52.475Z,22.19
2023-03-13T14:23:52.406Z,22.73
2023-03-13T14:24:52.429Z,22.55
2023-03-13T14:25:52.412Z,22.21
2023-03-13T14:26:52.436Z,22.25
2023-03-13T14:27:52.436Z,22.06
2023-03-13T14:28:52.514Z,22.21
2023-03-13T14:29:52.449Z,22.18
2023-03-13T14:30:52.468Z,21.93
2023-03-13T14:31:52.526Z,21.52
2023-03-13T14:32:52.581Z,22.17
2023-03-13T14:33:52.526Z,21.55
2023-03-13T14:34:52.532Z,21.83
2023-03-13T14:35:52.555Z,21.60
2023-03-13T14:36:55.522Z,21.34
2023-03-13T14:37:52.546Z,21.37
2023-03-13T14:38:52.556Z,21.35
2023-03-13T14:39:52.570Z,21.41
2023-03-13T14:40:52.579Z,21.50
2023-03-13T14:41:52.591Z,21.63
2023-03-13T14:42:52.615Z,21.43
2023-03-13T14:43:53.152Z,22.02
2023-03-13T14:44:52.623Z,21.21
2023-03-13T14:45:52.631Z,21.04
2023-03-13T14:46:52.711Z,20.86
2023-03-13T14:47:52.646Z,21.11
2023-03-13T14:48:52.693Z,21.09
2023-03-13T14:49:52.683Z,20.87
2023-03-13T14:50:59.644Z,20.87
2023-03-13T14:51:53.689Z,20.91
2023-03-13T14:52:52.695Z,20.93
2023-03-13T14:53:52.710Z,20.76
2023-03-13T14:54:52.724Z,20.92
2023-03-13T14:55:52.730Z,20.34
2023-03-13T14:56:52.740Z,21.26
2023-03-13T14:57:52.752Z,20.83
2023-03-13T14:58:52.767Z,20.42
2023-03-13T14:59:52.783Z,21.00
2023-03-13T15:00:52.876Z,20.47
2023-03-13T15:01:52.938Z,20.57
2023-03-13T15:02:55.270Z,20.58
2023-03-13T15:03:52.937Z,20.34
2023-03-13T15:04:52.877Z,20.45
2023-03-13T15:05:52.887Z,20.36
2023-03-13T15:06:52.896Z,19.92
2023-03-13T15:07:52.918Z,19.94
2023-03-13T15:08:52.920Z,20.17
2023-03-13T15:09:52.959Z,20.16
2023-03-13T15:10:52.965Z,20.01
2023-03-13T15:11:54.779Z,20.18
2023-03-13T15:12:53.111Z,19.90
2023-03-13T15:13:53.059Z,19.96
2023-03-13T15:14:53.055Z,19.46
2023-03-13T15:15:53.051Z,19.94
2023-03-13T15:16:53.134Z,19.77
2023-03-13T15:17:53.062Z,19.72
2023-03-13T15:18:53.088Z,19.66
2023-03-13T15:19:53.104Z,19.43
2023-03-13T15:20:53.129Z,19.52
2023-03-13T15:21:53.141Z,19.47
2023-03-13T15:22:53.173Z,19.05
2023-03-13T15:23:53.201Z,19.15
2023-03-13T15:25:05.643Z,18.97
2023-03-13T15:25:54.282Z,19.01
2023-03-13T15:26:53.298Z,19.07
2023-03-13T15:27:53.332Z,19.05
2023-03-13T15:28:53.348Z,19.21
2023-03-13T15:29:53.378Z,19.12
2023-03-13T15:30:53.407Z,19.01
2023-03-13T15:31:53.474Z,19.09
2023-03-13T15:32:53.494Z,19.20
2023-03-13T15:33:53.489Z,18.86
2023-03-13T15:34:53.520Z,18.76
2023-03-13T15:35:53.567Z,18.92
2023-03-13T15:36:53.621Z,18.73
2023-03-13T15:37:53.679Z,18.62
2023-03-13T15:38:53.717Z,18.80
2023-03-13T15:39:53.751Z,18.75
2023-03-13T15:40:53.846Z,18.21
2023-03-13T15:41:53.929Z,18.47
2023-03-13T15:42:53.928Z,18.49
2023-03-13T15:43:53.942Z,18.60
2023-03-13T15:44:53.965Z,18.02
2023-03-13T15:45:54.068Z,18.16
2023-03-13T15:46:54.001Z,17.95
2023-03-13T15:47:54.032Z,18.21
2023-03-13T15:48:54.058Z,18.02
2023-03-13T15:49:54.083Z,18.29
2023-03-13T15:50:54.676Z,17.76
2023-03-13T15:51:55.417Z,17.82
2023-03-13T15:52:54.175Z,17.65
2023-03-13T15:53:54.195Z,17.50
2023-03-13T15:54:54.219Z,17.68
2023-03-13T15:55:54.252Z,17.65
2023-03-13T15:56:54.313Z,17.79
2023-03-13T15:57:54.334Z,17.54
2023-03-13T15:58:54.458Z,17.45
2023-03-13T15:59:54.415Z,17.61
2023-03-13T16:00:54.498Z,17.28
2023-03-13T16:01:54.490Z,17.46
2023-03-13T16:02:54.562Z,17.13
2023-03-13T16:03:54.590Z,17.33
2023-03-13T16:04:54.766Z,17.28
2023-03-13T16:05:54.752Z,17.16
2023-03-13T16:06:54.718Z,17.07
2023-03-13T16:07:54.787Z,16.77
2023-03-13T16:08:54.808Z,16.79
2023-03-13T16:09:54.844Z,16.80
2023-03-13T16:10:54.873Z,17.07
2023-03-13T16:11:54.916Z,16.65
2023-03-13T16:12:54.981Z,16.85
2023-03-13T16:13:54.986Z,16.83
2023-03-13T16:14:55.017Z,16.45
2023-03-13T16:15:55.064Z,17.07
2023-03-13T16:16:55.125Z,16.42
2023-03-13T16:17:55.129Z,16.49
2023-03-13T16:18:55.160Z,16.65
2023-03-13T16:19:55.211Z,16.36
2023-03-13T16:20:55.244Z,16.31
2023-03-13T16:21:55.333Z,16.63
2023-03-13T16:22:55.312Z,16.38
2023-03-13T16:23:56.117Z,16.48
2023-03-13T16:24:55.401Z,16.53
2023-03-13T16:25:55.474Z,16.04
2023-03-13T16:26:58.196Z,16.24
2023-03-13T16:27:55.487Z,15.90
2023-03-13T16:28:55.513Z,15.99
2023-03-13T16:30:55.679Z,15.79
2023-03-13T18:42:00.660Z,10.97
2023-03-13T18:43:00.722Z,10.95
2023-03-13T18:44:00.783Z,10.86
2023-03-13T18:45:01.148Z,10.85
2023-03-13T18:46:00.991Z,10.75
2023-03-13T18:47:01.252Z,10.75
2023-03-13T18:48:01.007Z,10.69
2023-03-13T18:49:01.074Z,10.65
2023-03-13T18:50:01.137Z,10.64
2023-03-13T18:51:01.205Z,10.62
2023-03-13T18:52:01.265Z,10.63
2023-03-13T18:53:01.323Z,10.53
2023-03-13T18:54:01.380Z,10.50
2023-03-13T18:55:01.439Z,10.53
2023-03-13T18:56:01.512Z,10.36
2023-03-13T18:57:01.597Z,10.41
2023-03-13T18:58:01.657Z,10.38
2023-03-13T18:59:01.714Z,10.42
2023-03-13T19:00:01.823Z,10.32
2023-03-13T19:01:01.888Z,10.29
2023-03-13T19:02:01.988Z,10.20
2023-03-13T19:03:01.983Z,10.18
2023-03-13T19:04:02.040Z,10.14
2023-03-13T19:05:02.102Z,10.11
2023-03-13T19:06:02.175Z,10.02
2023-03-13T19:07:02.232Z,9.97
2023-03-13T19:08:02.305Z,9.95
2023-03-13T19:09:02.367Z,9.90
2023-03-13T19:10:02.474Z,9.96
2023-03-13T19:11:02.510Z,9.85
2023-03-13T19:12:02.571Z,9.78
2023-03-13T19:13:02.637Z,9.89
2023-03-13T19:14:02.702Z,9.85
2023-03-13T19:15:02.771Z,9.84
2023-03-13T19:16:02.852Z,9.68
2023-03-13T19:17:02.918Z,9.83
2023-03-13T19:18:03.919Z,9.60
2023-03-13T19:19:03.091Z,9.68
2023-03-13T19:20:03.133Z,9.59
2023-03-13T19:21:03.206Z,9.54
2023-03-13T19:22:03.290Z,9.53
2023-03-13T19:23:03.350Z,9.53
2023-03-13T19:24:03.413Z,9.51
2023-03-13T19:25:03.491Z,9.42
2023-03-13T19:26:03.564Z,9.49
2023-03-13T20:54:10.649Z,7.21
2023-03-13T20:55:10.669Z,7.15
2023-03-13T20:56:10.753Z,7.18
2023-03-13T20:57:10.846Z,7.19
2023-03-13T20:58:10.925Z,7.10
2023-03-13T20:59:11.022Z,7.15
2023-03-13T21:01:11.127Z,7.14
2023-03-13T21:02:11.189Z,7.14
2023-03-13T21:03:11.237Z,7.04
2023-03-13T21:04:11.208Z,7.01
2023-03-13T21:05:11.244Z,7.05
2023-03-13T21:06:11.263Z,6.99
2023-03-13T21:07:11.292Z,7.01
2023-03-13T21:08:11.297Z,6.94
2023-03-13T21:09:11.325Z,6.92
2023-03-13T21:10:11.349Z,6.87
2023-03-13T21:11:11.380Z,6.85
2023-03-13T21:12:11.412Z,6.81
2023-03-13T21:13:11.520Z,6.88
2023-03-13T21:14:11.459Z,6.80
2023-03-13T21:15:11.491Z,6.83
2023-03-13T21:16:11.560Z,6.84
2023-03-13T21:17:11.804Z,6.78
2023-03-13T21:18:11.598Z,6.79
2023-03-13T21:19:11.627Z,6.73
2023-03-13T21:20:11.680Z,6.76
2023-03-13T21:21:11.690Z,6.61
2023-03-13T21:22:11.721Z,6.65
2023-03-13T21:23:11.740Z,6.65
2023-03-13T21:24:11.827Z,6.68
2023-03-13T21:25:11.826Z,6.61
2023-03-13T21:26:11.847Z,6.56
2023-03-13T21:27:11.887Z,6.61
2023-03-13T21:28:11.906Z,6.55
2023-03-13T21:29:11.927Z,6.55
2023-03-13T21:30:11.981Z,6.59
2023-03-13T21:31:12.103Z,6.48
2023-03-13T21:32:12.037Z,6.59
2023-03-13T21:33:12.038Z,6.53
2023-03-13T21:34:12.069Z,6.40
2023-03-13T21:35:12.098Z,6.37
2023-03-13T21:36:12.128Z,6.29
2023-03-13T21:37:12.169Z,6.32
2023-03-13T21:38:12.188Z,6.41
2023-03-13T21:39:12.213Z,6.37
2023-03-13T21:40:12.251Z,6.32
2023-03-13T21:41:12.347Z,6.29
2023-03-13T21:42:12.450Z,6.36
2023-03-13T21:43:12.532Z,6.26
2023-03-13T21:44:12.637Z,6.29
2023-03-13T21:45:12.716Z,6.16
2023-03-13T21:46:12.811Z,6.23
2023-03-13T21:47:12.981Z,6.23
2023-03-13T21:48:13.004Z,6.26
2023-03-13T21:49:13.093Z,6.21
2023-03-13T21:50:13.190Z,6.12
2023-03-13T21:51:13.329Z,6.21
2023-03-13T21:52:13.376Z,6.15
2023-03-13T21:53:13.501Z,6.04
2023-03-13T21:54:13.573Z,5.97
2023-03-13T22:01:14.417Z,5.96
2023-03-13T23:38:20.661Z,4.77
2023-03-13T23:39:20.710Z,4.75
2023-03-13T23:40:20.802Z,4.72
2023-03-13T23:41:20.891Z,4.77
2023-03-13T23:42:21.036Z,4.70
2023-03-13T23:43:21.054Z,4.75
2023-03-13T23:44:21.141Z,4.70
2023-03-13T23:45:21.225Z,4.74
2023-03-13T23:46:21.308Z,4.73
2023-03-13T23:47:21.397Z,4.64
2023-03-13T23:48:21.454Z,4.67
2023-03-13T23:49:21.539Z,4.64
2023-03-13T23:50:21.582Z,4.63
2023-03-13T23:51:21.674Z,4.68
2023-03-13T23:52:21.737Z,4.60
2023-03-13T23:53:21.822Z,4.62
2023-03-13T23:54:21.896Z,4.55
2023-03-13T23:55:22.058Z,4.59
2023-03-13T23:56:22.145Z,4.59
2023-03-13T23:57:22.142Z,4.55
2023-03-13T23:58:22.222Z,4.55
2023-03-13T23:59:22.311Z,4.54
